Time;durP1;ratioP1;P1;durP2;ratioP2;P2;SDS_P1;SDS_P2;PMS_P1;PMS_P2;Temp;Humidity;BMP_temperature;BMP_pressure;BME280_temperature;BME280_humidity;BME280_pressure;Samples;Min_cycle;Max_cycle;Signal;HPM_P1;HPM_P2
2021/07/24 00:04:17;;;;;;;;;;;;;;;;;;10301236;28;19917;-65
2021/07/24 00:09:15;;;;;;;;;;;;;;;;;;10311789;28;19913;-64
2021/07/24 00:14:12;;;;;;;;;;;;;;;;;;10319669;28;19925;-63
2021/07/24 00:19:09;;;;;;;;;;;;;;;;;;10314951;28;21977;-63
2021/07/24 00:24:06;;;;;;;;;;;;;;;;;;10318565;28;20401;-64
2021/07/24 00:29:05;;;;;;;;;;;;;;;;;;10321259;28;19910;-64
2021/07/24 00:34:03;;;;;;;;;;;;;;;;;;10317596;28;19909;-64
2021/07/24 00:39:00;;;;;;;;;;;;;;;;;;10332509;28;19916;-65
2021/07/24 00:43:57;;;;;;;;;;;;;;;;;;10315950;28;20401;-64
2021/07/24 00:48:54;;;;;;;;;;;;;;;;;;10310062;28;20028;-64
2021/07/24 00:54:15;;;;;;;;;;;;;;;;;;10325929;28;19917;-64
2021/07/24 00:59:13;;;;;;;;;;;;;;;;;;10328235;28;20011;-64
2021/07/24 01:04:10;;;;;;;;;;;;;;;;;;10313429;28;20020;-65
2021/07/24 01:09:09;;;;;;;;;;;;;;;;;;10327799;28;20016;-64
2021/07/24 01:14:06;;;;;;;;;;;;;;;;;;10333629;28;20020;-64
2021/07/24 01:19:04;;;;;;;;;;;;;;;;;;10315601;28;19917;-64
2021/07/24 01:24:13;;;;;;;;;;;;;;;;;;10331504;28;19974;-65
2021/07/24 01:29:12;;;;;;;;;;;;;;;;;;10335573;28;19916;-66
2021/07/24 01:34:10;;;;;;;;;;;;;;;;;;10341148;28;19916;-65
2021/07/24 01:39:07;;;;;;;;;;;;;;;;;;10319395;28;19947;-65
2021/07/24 01:44:05;;;;;;;;;;;;;;;;;;10326597;28;19962;-65
2021/07/24 01:53:59;;;;;;;;;;;;;;;;;;10321879;28;19932;-64
2021/07/24 01:58:58;;;;;;;;;;;;;;;;;;10328780;28;19928;-64
2021/07/24 02:03:56;;;;;;;;;;;;;;;;;;10288948;28;20544;-65
2021/07/24 02:09:14;;;;;;;;;;;;;;;;;;10327579;28;19917;-65
2021/07/24 02:14:13;;;;;;;;;;;;;;;;;;10327218;28;20006;-64
2021/07/24 02:19:12;;;;;;;;;;;;;;;;;;10332011;28;19928;-65
2021/07/24 02:24:14;;;;;;;;;;;;;;;;;;10321637;28;19975;-64
2021/07/24 02:29:12;;;;;;;;;;;;;;;;;;10325793;28;19920;-64
2021/07/24 02:34:09;;;;;;;;;;;;;;;;;;10319868;28;19925;-64
2021/07/24 02:39:07;;;;;;;;;;;;;;;;;;10324454;28;19923;-64
2021/07/24 02:44:04;;;;;;;;;;;;;;;;;;10331424;28;19921;-65
2021/07/24 02:49:02;;;;;;;;;;;;;;;;;;10317261;28;19928;-64
2021/07/24 02:54:01;;;;;;;;;;;;;;;;;;10323924;28;19982;-65
2021/07/24 02:59:00;;;;;;;;;;;;;;;;;;10341145;28;20003;-65
2021/07/24 03:03:58;;;;;;;;;;;;;;;;;;10319948;28;19928;-64
2021/07/24 03:08:55;;;;;;;;;;;;;;;;;;10308437;28;19982;-65
2021/07/24 03:13:52;;;;;;;;;;;;;;;;;;10324272;28;21076;-64
2021/07/24 03:18:51;;;;;;;;;;;;;;;;;;10328595;28;20015;-65
2021/07/24 03:23:49;;;;;;;;;;;;;;;;;;10335532;28;20333;-64
2021/07/24 03:28:46;;;;;;;;;;;;;;;;;;10322970;28;19921;-62
2021/07/24 03:33:43;;;;;;;;;;;;;;;;;;10325714;28;19921;-64
2021/07/24 03:38:41;;;;;;;;;;;;;;;;;;10325289;28;19924;-63
2021/07/24 03:43:38;;;;;;;;;;;;;;;;;;10323151;28;19920;-63
2021/07/24 03:48:35;;;;;;;;;;;;;;;;;;10326734;28;19987;-62
2021/07/24 03:53:32;;;;;;;;;;;;;;;;;;10322865;28;20408;-65
2021/07/24 03:58:30;;;;;;;;;;;;;;;;;;10332384;28;20011;-65
2021/07/24 04:03:27;;;;;;;;;;;;;;;;;;10322421;28;20437;-64
2021/07/24 04:08:24;;;;;;;;;;;;;;;;;;10317530;28;19998;-64
2021/07/24 04:13:21;;;;;;;;;;;;;;;;;;10324323;28;19928;-66
2021/07/24 04:18:24;;;;;;;;;;;;;;;;;;10321421;28;19917;-65
2021/07/24 04:23:21;;;;;;;;;;;;;;;;;;10330216;28;19916;-66
2021/07/24 04:28:19;;;;;;;;;;;;;;;;;;10321922;28;19917;-64
2021/07/24 04:33:16;;;;;;;;;;;;;;;;;;10325750;28;19924;-63
2021/07/24 04:38:13;;;;;;;;;;;;;;;;;;10315539;28;19930;-65
2021/07/24 04:43:10;;;;;;;;;;;;;;;;;;10305808;28;20023;-64
2021/07/24 04:48:08;;;;;;;;;;;;;;;;;;10322381;28;20306;-66
2021/07/24 04:53:05;;;;;;;;;;;;;;;;;;10321615;28;19918;-65
2021/07/24 04:58:02;;;;;;;;;;;;;;;;;;10314543;28;19918;-65
2021/07/24 05:02:59;;;;;;;;;;;;;;;;;;10326849;28;20345;-64
2021/07/24 05:07:57;;;;;;;;;;;;;;;;;;10324567;28;20215;-64
2021/07/24 05:12:54;;;;;;;;;;;;;;;;;;10326263;28;19925;-64
2021/07/24 05:17:51;;;;;;;;;;;;;;;;;;10319562;28;19935;-64
2021/07/24 05:22:48;;;;;;;;;;;;;;;;;;10325005;28;19921;-64
2021/07/24 05:27:46;;;;;;;;;;;;;;;;;;10329977;28;19943;-64
2021/07/24 05:32:43;;;;;;;;;;;;;;;;;;10328568;28;20038;-66
2021/07/24 05:37:40;;;;;;;;;;;;;;;;;;10328456;28;20356;-65
2021/07/24 05:42:37;;;;;;;;;;;;;;;;;;10332435;28;20309;-66
2021/07/24 05:47:35;;;;;;;;;;;;;;;;;;10317522;28;19982;-63
2021/07/24 05:52:32;;;;;;;;;;;;;;;;;;10324376;28;19921;-61
2021/07/24 05:57:29;;;;;;;;;;;;;;;;;;10312242;28;20346;-63
2021/07/24 06:02:26;;;;;;;;;;;;;;;;;;10328539;28;19921;-63
2021/07/24 06:07:24;;;;;;;;;;;;;;;;;;10317365;28;19927;-64
2021/07/24 06:12:21;;;;;;;;;;;;;;;;;;10319793;28;19917;-63
2021/07/24 06:17:18;;;;;;;;;;;;;;;;;;10323492;28;20299;-63
2021/07/24 06:22:16;;;;;;;;;;;;;;;;;;10312706;28;19935;-63
2021/07/24 06:27:13;;;;;;;;;;;;;;;;;;10311619;28;19927;-63
2021/07/24 06:32:10;;;;;;;;;;;;;;;;;;10322662;28;20007;-61
2021/07/24 06:37:07;;;;;;;;;;;;;;;;;;10320160;28;19916;-61
2021/07/24 06:42:05;;;;;;;;;;;;;;;;;;10324595;28;20430;-63
2021/07/24 06:47:02;;;;;;;;;;;;;;;;;;10331202;28;19943;-63
2021/07/24 06:51:59;;;;;;;;;;;;;;;;;;10322664;28;19919;-63
2021/07/24 06:56:56;;;;;;;;;;;;;;;;;;10326401;28;19913;-61
2021/07/24 07:01:54;;;;;;;;;;;;;;;;;;10318289;28;19913;-63
2021/07/24 07:06:53;;;;;;;;;;;;;;;;;;10331322;28;20459;-63
2021/07/24 07:11:50;;;;;;;;;;;;;;;;;;10314042;28;19921;-63
2021/07/24 07:16:47;;;;;;;;;;;;;;;;;;10315045;28;19917;-63
2021/07/24 07:21:45;;;;;;;;;;;;;;;;;;10326327;28;20429;-63
2021/07/24 07:26:42;;;;;;;;;;;;;;;;;;10324347;28;20290;-63
2021/07/24 07:31:39;;;;;;;;;;;;;;;;;;10323335;28;19925;-62
2021/07/24 07:36:37;;;;;;;;;;;;;;;;;;10319518;28;19970;-62
2021/07/24 07:41:34;;;;;;;;;;;;;;;;;;10327822;28;19927;-63
2021/07/24 07:46:31;;;;;;;;;;;;;;;;;;10326344;28;20398;-63
2021/07/24 07:51:29;;;;;;;;;;;;;;;;;;10322703;28;19925;-62
2021/07/24 07:56:26;;;;;;;;;;;;;;;;;;10314971;28;20769;-62
2021/07/24 08:01:23;;;;;;;;;;;;;;;;;;10329332;28;19927;-63
2021/07/24 08:06:20;;;;;;;;;;;;;;;;;;10335015;28;19928;-61
2021/07/24 08:11:18;;;;;;;;;;;;;;;;;;10327577;28;19924;-61
2021/07/24 08:16:15;;;;;;;;;;;;;;;;;;10321754;28;19920;-61
2021/07/24 08:21:12;;;;;;;;;;;;;;;;;;10327220;28;20424;-61
2021/07/24 08:26:10;;;;;;;;;;;;;;;;;;10310456;28;19925;-61
2021/07/24 08:31:07;;;;;;;;;;;;;;;;;;10325802;28;19924;-62
2021/07/24 08:36:04;;;;;;;;;;;;;;;;;;10322491;28;20411;-63
2021/07/24 08:41:01;;;;;;;;;;;;;;;;;;10314978;28;19917;-63
2021/07/24 08:45:59;;;;;;;;;;;;;;;;;;10312003;28;20015;-63
2021/07/24 08:50:56;;;;;;;;;;;;;;;;;;10317029;28;19928;-63
2021/07/24 08:55:53;;;;;;;;;;;;;;;;;;10310327;28;19929;-63
2021/07/24 09:00:51;;;;;;;;;;;;;;;;;;10335763;28;20352;-63
2021/07/24 09:05:48;;;;;;;;;;;;;;;;;;10339456;28;19920;-63
2021/07/24 09:10:47;;;;;;;;;;;;;;;;;;10333014;28;19965;-63
2021/07/24 09:15:44;;;;;;;;;;;;;;;;;;10323444;28;19939;-63
2021/07/24 09:20:41;;;;;;;;;;;;;;;;;;10324731;28;19921;-63
2021/07/24 09:25:38;;;;;;;;;;;;;;;;;;10328184;28;19925;-63
2021/07/24 09:30:36;;;;;;;;;;;;;;;;;;10323162;28;20386;-63
2021/07/24 09:35:33;;;;;;;;;;;;;;;;;;10328482;28;19927;-63
2021/07/24 09:40:30;;;;;;;;;;;;;;;;;;10328738;28;19944;-63
2021/07/24 09:45:28;;;;;;;;;;;;;;;;;;10330647;28;20027;-63
2021/07/24 09:50:25;;;;;;;;;;;;;;;;;;10328308;28;19917;-64
2021/07/24 09:55:22;;;;;;;;;;;;;;;;;;10312253;28;19925;-64
2021/07/24 10:00:20;;;;;;;;;;;;;;;;;;10334736;28;19982;-63
2021/07/24 10:05:18;;;;;;;;;;;;;;;;;;10339995;28;19920;-63
2021/07/24 10:10:15;;;;;;;;;;;;;;;;;;10316054;28;19924;-63
2021/07/24 10:15:13;;;;;;;;;;;;;;;;;;10327371;28;19973;-63
2021/07/24 10:20:11;;;;;;;;;;;;;;;;;;10318083;28;19917;-62
2021/07/24 10:25:08;;;;;;;;;;;;;;;;;;10316410;28;20409;-62
2021/07/24 10:30:05;;;;;;;;;;;;;;;;;;10325318;28;20023;-62
2021/07/24 10:35:03;;;;;;;;;;;;;;;;;;10316948;28;19928;-62
2021/07/24 10:40:00;;;;;;;;;;;;;;;;;;10331442;28;19917;-62
2021/07/24 10:44:57;;;;;;;;;;;;;;;;;;10327847;28;19921;-61
2021/07/24 10:49:54;;;;;;;;;;;;;;;;;;10326555;28;19927;-63
2021/07/24 10:54:52;;;;;;;;;;;;;;;;;;10318659;28;19916;-62
2021/07/24 10:59:49;;;;;;;;;;;;;;;;;;10319514;28;20349;-62
2021/07/24 11:04:47;;;;;;;;;;;;;;;;;;10318913;28;20482;-62
2021/07/24 11:09:44;;;;;;;;;;;;;;;;;;10324951;28;20243;-62
2021/07/24 11:14:42;;;;;;;;;;;;;;;;;;10319614;28;19952;-62
2021/07/24 11:19:39;;;;;;;;;;;;;;;;;;10317978;28;19921;-62
2021/07/24 11:24:37;;;;;;;;;;;;;;;;;;10322973;28;19920;-62
2021/07/24 11:29:34;;;;;;;;;;;;;;;;;;10324171;28;19921;-62
2021/07/24 11:34:31;;;;;;;;;;;;;;;;;;10308957;28;20039;-62
2021/07/24 11:39:29;;;;;;;;;;;;;;;;;;10329812;28;19949;-62
2021/07/24 11:44:26;;;;;;;;;;;;;;;;;;10315280;28;20024;-63
2021/07/24 11:49:23;;;;;;;;;;;;;;;;;;10316235;28;19917;-62
2021/07/24 11:54:20;;;;;;;;;;;;;;;;;;10326997;28;19922;-62
2021/07/24 11:59:18;;;;;;;;;;;;;;;;;;10322534;28;19976;-63
2021/07/24 12:04:16;;;;;;;;;;;;;;;;;;10327312;28;19948;-62
2021/07/24 12:09:14;;;;;;;;;;;;;;;;;;10306901;28;19917;-63
2021/07/24 12:14:11;;;;;;;;;;;;;;;;;;10302393;28;19920;-63
2021/07/24 12:19:08;;;;;;;;;;;;;;;;;;10296159;28;19947;-63
2021/07/24 12:24:06;;;;;;;;;;;;;;;;;;10315407;28;19928;-64
2021/07/24 12:29:03;;;;;;;;;;;;;;;;;;10326682;28;19924;-63
2021/07/24 12:34:01;;;;;;;;;;;;;;;;;;10332700;28;19927;-62
2021/07/24 12:38:58;;;;;;;;;;;;;;;;;;10330513;28;19917;-62
2021/07/24 12:43:56;;;;;;;;;;;;;;;;;;10332859;28;19935;-63
2021/07/24 12:48:53;;;;;;;;;;;;;;;;;;10330187;28;19924;-63
2021/07/24 12:53:54;;;;;;;;;;;;;;;;;;10323504;28;20051;-63
2021/07/24 12:58:52;;;;;;;;;;;;;;;;;;10319294;28;19923;-63
2021/07/24 13:03:49;;;;;;;;;;;;;;;;;;10327235;28;20483;-63
2021/07/24 13:08:46;;;;;;;;;;;;;;;;;;10327806;28;19925;-63
2021/07/24 13:13:43;;;;;;;;;;;;;;;;;;10323472;28;19932;-63
2021/07/24 13:18:41;;;;;;;;;;;;;;;;;;10334996;28;19920;-63
2021/07/24 13:23:38;;;;;;;;;;;;;;;;;;10332399;28;19923;-64
2021/07/24 13:28:37;;;;;;;;;;;;;;;;;;10325023;28;19928;-64
2021/07/24 13:33:34;;;;;;;;;;;;;;;;;;10334242;28;19923;-63
2021/07/24 13:38:31;;;;;;;;;;;;;;;;;;10327001;28;19919;-64
2021/07/24 13:43:28;;;;;;;;;;;;;;;;;;10332925;28;19984;-64
2021/07/24 13:48:26;;;;;;;;;;;;;;;;;;10309508;28;19933;-63
2021/07/24 13:53:23;;;;;;;;;;;;;;;;;;10321793;28;20012;-65
2021/07/24 13:58:20;;;;;;;;;;;;;;;;;;10314621;28;20062;-64
2021/07/24 14:03:17;;;;;;;;;;;;;;;;;;10315154;28;19917;-63
2021/07/24 14:08:15;;;;;;;;;;;;;;;;;;10328525;28;19920;-63
2021/07/24 14:13:12;;;;;;;;;;;;;;;;;;10328919;28;19924;-63
2021/07/24 14:18:09;;;;;;;;;;;;;;;;;;10332645;28;19932;-62
2021/07/24 14:23:07;;;;;;;;;;;;;;;;;;10340401;28;19986;-63
2021/07/24 14:28:04;;;;;;;;;;;;;;;;;;10316508;28;19948;-64
2021/07/24 14:33:01;;;;;;;;;;;;;;;;;;10328006;28;20279;-64
2021/07/24 14:37:58;;;;;;;;;;;;;;;;;;10341316;28;19921;-63
2021/07/24 14:42:56;;;;;;;;;;;;;;;;;;10326393;28;20409;-64
2021/07/24 14:47:53;;;;;;;;;;;;;;;;;;10328488;28;19920;-63
2021/07/24 14:52:51;;;;;;;;;;;;;;;;;;10321836;28;19917;-64
2021/07/24 14:57:48;;;;;;;;;;;;;;;;;;10320255;28;19921;-63
2021/07/24 15:02:45;;;;;;;;;;;;;;;;;;10327895;28;19936;-63
2021/07/24 15:07:42;;;;;;;;;;;;;;;;;;10325292;28;19929;-63
2021/07/24 15:12:40;;;;;;;;;;;;;;;;;;10310674;28;19932;-62
2021/07/24 15:17:37;;;;;;;;;;;;;;;;;;10326718;28;20043;-63
2021/07/24 15:22:34;;;;;;;;;;;;;;;;;;10324955;28;19970;-63
2021/07/24 15:27:32;;;;;;;;;;;;;;;;;;10323322;28;19963;-62
2021/07/24 15:32:29;;;;;;;;;;;;;;;;;;10313859;28;19931;-61
2021/07/24 15:37:26;;;;;;;;;;;;;;;;;;10323994;28;20375;-62
2021/07/24 15:42:23;;;;;;;;;;;;;;;;;;10329927;28;19917;-62
2021/07/24 15:47:21;;;;;;;;;;;;;;;;;;10334283;28;19982;-61
2021/07/24 15:52:18;;;;;;;;;;;;;;;;;;10323491;28;20281;-61
2021/07/24 15:57:15;;;;;;;;;;;;;;;;;;10320745;28;20247;-61
2021/07/24 16:02:12;;;;;;;;;;;;;;;;;;10322086;28;19924;-61
2021/07/24 16:07:10;;;;;;;;;;;;;;;;;;10329226;28;19921;-61
2021/07/24 16:12:07;;;;;;;;;;;;;;;;;;10329724;28;19956;-61
2021/07/24 16:17:04;;;;;;;;;;;;;;;;;;10321923;28;19921;-61
2021/07/24 16:22:01;;;;;;;;;;;;;;;;;;10320287;28;19921;-62
2021/07/24 16:26:59;;;;;;;;;;;;;;;;;;10321281;28;19936;-62
2021/07/24 16:31:56;;;;;;;;;;;;;;;;;;10317904;28;19921;-61
2021/07/24 16:36:53;;;;;;;;;;;;;;;;;;10331512;28;20019;-61
2021/07/24 16:41:50;;;;;;;;;;;;;;;;;;10315235;28;20040;-61
2021/07/24 16:46:48;;;;;;;;;;;;;;;;;;10297971;28;20329;-61
2021/07/24 16:51:45;;;;;;;;;;;;;;;;;;10319602;28;20017;-61
2021/07/24 16:56:42;;;;;;;;;;;;;;;;;;10316073;28;19917;-61
2021/07/24 17:01:40;;;;;;;;;;;;;;;;;;10305986;28;19921;-61
2021/07/24 17:06:37;;;;;;;;;;;;;;;;;;10317416;28;19998;-60
2021/07/24 17:11:34;;;;;;;;;;;;;;;;;;10324413;28;20298;-61
2021/07/24 17:16:31;;;;;;;;;;;;;;;;;;10320624;28;20352;-62
2021/07/24 17:21:29;;;;;;;;;;;;;;;;;;10325661;28;20047;-62
2021/07/24 17:26:26;;;;;;;;;;;;;;;;;;10326776;28;19968;-62
2021/07/24 17:31:23;;;;;;;;;;;;;;;;;;10331724;28;19916;-62
2021/07/24 17:36:21;;;;;;;;;;;;;;;;;;10329494;28;19978;-62
2021/07/24 17:41:18;;;;;;;;;;;;;;;;;;10313109;28;19917;-62
2021/07/24 17:46:15;;;;;;;;;;;;;;;;;;10310422;28;19921;-62
2021/07/24 17:51:19;;;;;;;;;;;;;;;;;;10330024;28;20004;-61
2021/07/24 17:56:16;;;;;;;;;;;;;;;;;;10318262;28;19917;-61
2021/07/24 18:01:13;;;;;;;;;;;;;;;;;;10323216;28;19917;-62
2021/07/24 18:06:11;;;;;;;;;;;;;;;;;;10324033;28;19928;-62
2021/07/24 18:11:08;;;;;;;;;;;;;;;;;;10317817;28;20345;-61
2021/07/24 18:16:05;;;;;;;;;;;;;;;;;;10322508;28;20031;-62
2021/07/24 18:21:03;;;;;;;;;;;;;;;;;;10326428;28;19921;-62
2021/07/24 18:26:00;;;;;;;;;;;;;;;;;;10331858;28;19921;-61
2021/07/24 18:30:57;;;;;;;;;;;;;;;;;;10330087;28;19917;-61
2021/07/24 18:35:55;;;;;;;;;;;;;;;;;;10322451;28;20035;-62
2021/07/24 18:40:52;;;;;;;;;;;;;;;;;;10320533;28;19923;-61
2021/07/24 18:45:50;;;;;;;;;;;;;;;;;;10325060;28;20044;-61
2021/07/24 18:50:47;;;;;;;;;;;;;;;;;;10320724;28;19929;-62
2021/07/24 18:55:44;;;;;;;;;;;;;;;;;;10328791;28;20011;-60
2021/07/24 19:00:42;;;;;;;;;;;;;;;;;;10320567;28;19932;-61
2021/07/24 19:05:39;;;;;;;;;;;;;;;;;;10317038;28;20454;-61
2021/07/24 19:10:36;;;;;;;;;;;;;;;;;;10320259;28;20325;-60
2021/07/24 19:15:33;;;;;;;;;;;;;;;;;;10312461;28;19921;-62
2021/07/24 19:20:31;;;;;;;;;;;;;;;;;;10328080;28;20243;-61
2021/07/24 19:25:29;;;;;;;;;;;;;;;;;;10314474;28;19921;-61
2021/07/24 19:30:27;;;;;;;;;;;;;;;;;;10314790;28;20275;-61
2021/07/24 19:35:24;;;;;;;;;;;;;;;;;;10319739;28;20011;-61
2021/07/24 19:40:21;;;;;;;;;;;;;;;;;;10330414;28;20004;-61
2021/07/24 19:45:19;;;;;;;;;;;;;;;;;;10313473;28;19921;-61
2021/07/24 19:50:18;;;;;;;;;;;;;;;;;;10341202;28;20001;-61
2021/07/24 19:55:16;;;;;;;;;;;;;;;;;;10317178;28;19917;-61
2021/07/24 20:00:13;;;;;;;;;;;;;;;;;;10323942;28;19932;-61
2021/07/24 20:05:10;;;;;;;;;;;;;;;;;;10312130;28;19927;-61
2021/07/24 20:10:07;;;;;;;;;;;;;;;;;;10316054;28;19917;-61
2021/07/24 20:15:05;;;;;;;;;;;;;;;;;;10317001;28;20023;-62
2021/07/24 20:20:02;;;;;;;;;;;;;;;;;;10315083;28;19935;-61
2021/07/24 20:24:59;;;;;;;;;;;;;;;;;;10309704;28;20385;-61
2021/07/24 20:29:56;;;;;;;;;;;;;;;;;;10316992;28;19931;-61
2021/07/24 20:34:54;;;;;;;;;;;;;;;;;;10316678;28;19947;-61
2021/07/24 20:39:51;;;;;;;;;;;;;;;;;;10326208;28;19924;-61
2021/07/24 20:44:49;;;;;;;;;;;;;;;;;;10314946;28;20345;-62
2021/07/24 20:49:49;;;;;;;;;;;;;;;;;;10314014;28;20012;-61
2021/07/24 20:54:46;;;;;;;;;;;;;;;;;;10319753;28;20317;-61
2021/07/24 20:59:44;;;;;;;;;;;;;;;;;;10336263;28;19924;-60
2021/07/24 21:04:41;;;;;;;;;;;;;;;;;;10329375;28;20240;-60
2021/07/24 21:09:38;;;;;;;;;;;;;;;;;;10327846;28;19977;-60
2021/07/24 21:14:37;;;;;;;;;;;;;;;;;;10311703;28;20015;-61
2021/07/24 21:19:34;;;;;;;;;;;;;;;;;;10321846;28;19921;-60
2021/07/24 21:24:31;;;;;;;;;;;;;;;;;;10322139;28;20015;-61
2021/07/24 21:29:28;;;;;;;;;;;;;;;;;;10331282;28;20391;-61
2021/07/24 21:34:26;;;;;;;;;;;;;;;;;;10316803;28;19988;-61
2021/07/24 21:39:23;;;;;;;;;;;;;;;;;;10322021;28;20004;-61
2021/07/24 21:44:20;;;;;;;;;;;;;;;;;;10310389;28;19924;-60
2021/07/24 21:49:17;;;;;;;;;;;;;;;;;;10332026;28;20066;-60
2021/07/24 21:54:15;;;;;;;;;;;;;;;;;;10331134;28;20423;-60
2021/07/24 21:59:12;;;;;;;;;;;;;;;;;;10322268;28;19917;-60
2021/07/24 22:04:09;;;;;;;;;;;;;;;;;;10318430;28;20281;-61
2021/07/24 22:09:07;;;;;;;;;;;;;;;;;;10326489;28;19975;-62
2021/07/24 22:14:04;;;;;;;;;;;;;;;;;;10321726;28;19921;-61
2021/07/24 22:19:01;;;;;;;;;;;;;;;;;;10334536;28;19937;-61
2021/07/24 22:23:59;;;;;;;;;;;;;;;;;;10323977;28;19921;-61
2021/07/24 22:28:56;;;;;;;;;;;;;;;;;;10322604;28;20444;-61
2021/07/24 22:33:53;;;;;;;;;;;;;;;;;;10313629;28;20976;-61
2021/07/24 22:38:51;;;;;;;;;;;;;;;;;;10320024;28;19917;-61
2021/07/24 22:43:48;;;;;;;;;;;;;;;;;;10307325;28;19916;-61
2021/07/24 22:48:45;;;;;;;;;;;;;;;;;;10331156;28;20255;-60
2021/07/24 22:53:43;;;;;;;;;;;;;;;;;;10319908;28;20318;-60
2021/07/24 22:58:43;;;;;;;;;;;;;;;;;;10320934;28;19944;-60
2021/07/24 23:03:40;;;;;;;;;;;;;;;;;;10323959;28;19917;-60
2021/07/24 23:08:37;;;;;;;;;;;;;;;;;;10312144;28;19921;-60
2021/07/24 23:13:35;;;;;;;;;;;;;;;;;;10329921;28;19917;-61
2021/07/24 23:18:32;;;;;;;;;;;;;;;;;;10326647;28;19921;-59
2021/07/24 23:23:29;;;;;;;;;;;;;;;;;;10323088;28;19940;-60
2021/07/24 23:28:26;;;;;;;;;;;;;;;;;;10318214;28;19921;-61
2021/07/24 23:33:24;;;;;;;;;;;;;;;;;;10312368;28;20301;-60
2021/07/24 23:38:21;;;;;;;;;;;;;;;;;;10305564;28;20402;-61
2021/07/24 23:43:18;;;;;;;;;;;;;;;;;;10314565;28;19924;-61
2021/07/24 23:48:16;;;;;;;;;;;;;;;;;;10319400;28;20294;-60
2021/07/24 23:53:13;;;;;;;;;;;;;;;;;;10308161;28;20309;-61
2021/07/24 23:58:10;;;;;;;;;;;;;;;;;;10325368;28;20866;-60
